Time;durP1;ratioP1;P1;durP2;ratioP2;P2;SDS_P1;SDS_P2;PMS_P1;PMS_P2;Temp;Humidity;BMP_temperature;BMP_pressure;BME280_temperature;BME280_humidity;BME280_pressure;Samples;Min_cycle;Max_cycle;Signal;HPM_P1;HPM_P2
2022/06/07 00:01:14;;;;;;;28.03;7.10;;;17.60;40.20;;;;;;4990248;28;20476;-68
2022/06/07 00:03:42;;;;;;;26.60;6.83;;;17.50;40.50;;;;;;4991115;28;20862;-69
2022/06/07 00:06:09;;;;;;;28.27;7.23;;;17.60;40.80;;;;;;4988636;28;20555;-68
2022/06/07 00:08:36;;;;;;;27.17;6.87;;;17.60;40.90;;;;;;4990240;28;20813;-69
2022/06/07 00:11:03;;;;;;;28.23;6.77;;;17.50;41.00;;;;;;4989786;28;20619;-69
2022/06/07 00:13:30;;;;;;;29.20;6.30;;;17.50;41.30;;;;;;4990544;28;20491;-68
2022/06/07 00:15:58;;;;;;;28.57;6.93;;;17.50;41.00;;;;;;4989644;28;20460;-69
2022/06/07 00:18:25;;;;;;;27.93;7.10;;;17.50;41.20;;;;;;4989917;28;20831;-68
2022/06/07 00:20:52;;;;;;;27.73;6.97;;;17.50;41.50;;;;;;4989903;28;20887;-68
2022/06/07 00:23:20;;;;;;;27.57;6.90;;;17.50;41.30;;;;;;4990196;28;20488;-68
2022/06/07 00:25:50;;;;;;;26.77;7.07;;;17.40;41.60;;;;;;4989741;28;20802;-68
2022/06/07 00:28:18;;;;;;;27.00;6.27;;;17.30;41.60;;;;;;4990282;28;20473;-68
2022/06/07 00:30:45;;;;;;;26.60;6.07;;;17.40;41.90;;;;;;4988640;28;20469;-68
2022/06/07 00:33:14;;;;;;;26.97;6.60;;;17.40;41.40;;;;;;4990212;28;21064;-68
2022/06/07 00:35:41;;;;;;;29.40;6.83;;;17.40;41.20;;;;;;4990389;28;20468;-68
2022/06/07 00:38:09;;;;;;;27.47;7.07;;;17.40;41.20;;;;;;4989955;28;20499;-68
2022/06/07 00:40:36;;;;;;;26.80;6.53;;;17.30;41.30;;;;;;4988511;28;20488;-68
2022/06/07 00:43:03;;;;;;;27.93;6.50;;;17.30;41.10;;;;;;4990116;28;20975;-68
2022/06/07 00:45:30;;;;;;;30.67;6.83;;;17.30;41.00;;;;;;4989380;28;20464;-68
2022/06/07 00:47:57;;;;;;;28.10;8.47;;;17.30;41.70;;;;;;4990527;28;20488;-68
2022/06/07 00:50:31;;;;;;;26.50;7.03;;;17.40;42.60;;;;;;4989552;28;20491;-68
2022/06/07 00:52:59;;;;;;;27.20;6.67;;;17.40;43.00;;;;;;4988861;28;20485;-68
2022/06/07 00:55:26;;;;;;;28.97;6.87;;;17.40;42.60;;;;;;4990032;28;20498;-68
2022/06/07 00:57:53;;;;;;;29.23;8.07;;;17.50;42.60;;;;;;4989587;28;21143;-68
2022/06/07 01:00:23;;;;;;;27.23;6.33;;;17.50;42.50;;;;;;4988531;28;20555;-68
2022/06/07 01:02:49;;;;;;;27.53;7.13;;;17.50;42.30;;;;;;4987526;28;20543;-68
2022/06/07 01:05:16;;;;;;;33.20;7.53;;;17.50;42.40;;;;;;4989013;28;20468;-68
2022/06/07 01:10:47;;;;;;;34.53;10.13;;;17.50;42.30;;;;;;4989488;28;20483;-69
2022/06/07 01:13:15;;;;;;;29.47;7.50;;;17.50;42.10;;;;;;4990430;28;20523;-68
2022/06/07 01:15:44;;;;;;;32.03;8.03;;;17.50;41.70;;;;;;4988667;28;20906;-69
2022/06/07 01:18:11;;;;;;;30.57;7.03;;;17.50;42.10;;;;;;4989874;28;20488;-69
2022/06/07 01:20:38;;;;;;;28.30;7.83;;;17.60;41.40;;;;;;4989121;28;20456;-69
2022/06/07 01:23:07;;;;;;;28.00;7.70;;;17.50;41.30;;;;;;4988877;28;20480;-69
2022/06/07 01:25:34;;;;;;;27.87;7.57;;;17.50;41.50;;;;;;4988292;28;20950;-69
2022/06/07 01:28:01;;;;;;;31.83;8.90;;;17.50;41.90;;;;;;4988879;28;20837;-68
2022/06/07 01:30:27;;;;;;;28.93;7.57;;;17.50;41.40;;;;;;4988845;28;20483;-68
2022/06/07 01:32:54;;;;;;;28.50;7.90;;;17.50;41.60;;;;;;4988863;28;20907;-68
2022/06/07 01:35:21;;;;;;;27.53;7.60;;;17.50;41.60;;;;;;4988536;28;20457;-68
2022/06/07 01:37:48;;;;;;;29.07;8.20;;;17.40;41.60;;;;;;4988016;28;20472;-68
2022/06/07 01:43:00;;;;;;;29.30;8.27;;;17.50;42.30;;;;;;4988693;28;20460;-68
2022/06/07 01:45:27;;;;;;;30.90;9.30;;;17.50;42.20;;;;;;4988500;28;21152;-67
2022/06/07 01:47:54;;;;;;;30.10;8.80;;;17.60;42.10;;;;;;4987298;28;20471;-69
2022/06/07 01:50:21;;;;;;;28.90;8.13;;;17.60;42.00;;;;;;4988927;28;20586;-68
2022/06/07 01:52:47;;;;;;;28.93;7.93;;;17.60;42.10;;;;;;4988659;28;20480;-68
2022/06/07 01:55:15;;;;;;;30.30;8.40;;;17.60;42.50;;;;;;4988952;28;20800;-68
2022/06/07 01:57:42;;;;;;;32.53;8.20;;;17.60;42.20;;;;;;4987614;28;20468;-68
2022/06/07 02:00:10;;;;;;;29.07;9.40;;;17.50;42.30;;;;;;4988766;28;20472;-68
2022/06/07 02:02:37;;;;;;;29.60;8.60;;;17.50;42.50;;;;;;4987566;28;20985;-69
2022/06/07 02:05:04;;;;;;;29.60;9.20;;;17.50;42.60;;;;;;4986332;28;20461;-68
2022/06/07 02:07:30;;;;;;;31.13;8.57;;;17.50;42.60;;;;;;4987168;28;20465;-68
2022/06/07 02:09:57;;;;;;;29.20;9.20;;;17.40;43.00;;;;;;4989167;28;20788;-68
2022/06/07 02:12:25;;;;;;;34.60;9.70;;;17.40;42.90;;;;;;4988744;28;20531;-68
2022/06/07 02:14:52;;;;;;;29.27;8.33;;;17.50;43.30;;;;;;4988315;28;20472;-68
2022/06/07 02:17:19;;;;;;;29.53;8.97;;;17.40;43.20;;;;;;4987774;28;21141;-67
2022/06/07 02:19:46;;;;;;;28.57;8.23;;;17.40;43.20;;;;;;4988308;28;21045;-68
2022/06/07 02:22:13;;;;;;;30.00;9.20;;;17.40;43.20;;;;;;4987471;28;20476;-68
2022/06/07 02:24:39;;;;;;;28.70;8.87;;;17.40;43.40;;;;;;4988490;28;20461;-68
2022/06/07 02:27:10;;;;;;;29.37;9.23;;;17.40;43.50;;;;;;4987950;28;20835;-69
2022/06/07 02:29:40;;;;;;;30.53;9.53;;;17.40;43.80;;;;;;4986816;28;20477;-68
2022/06/07 02:32:11;;;;;;;29.20;8.83;;;17.40;44.00;;;;;;4987585;28;20868;-69
2022/06/07 02:34:41;;;;;;;28.70;8.33;;;17.50;44.40;;;;;;4987865;28;20473;-69
2022/06/07 02:37:08;;;;;;;28.37;8.10;;;17.50;43.70;;;;;;4988010;28;20470;-68
2022/06/07 02:39:36;;;;;;;29.03;7.60;;;17.60;43.40;;;;;;4990534;28;20460;-69
2022/06/07 02:42:06;;;;;;;30.07;7.80;;;17.60;42.80;;;;;;4993161;28;20477;-68
2022/06/07 02:44:32;;;;;;;29.27;6.90;;;17.60;42.30;;;;;;4992647;28;20465;-68
2022/06/07 02:47:01;;;;;;;28.40;6.20;;;17.60;42.10;;;;;;4991855;28;20457;-68
2022/06/07 02:49:27;;;;;;;27.40;6.30;;;17.60;41.70;;;;;;4991546;28;20476;-68
2022/06/07 02:51:54;;;;;;;28.40;6.80;;;17.60;41.60;;;;;;4991997;28;20515;-67
2022/06/07 02:54:21;;;;;;;29.90;5.83;;;17.60;41.20;;;;;;4992026;28;20464;-68
2022/06/07 02:56:47;;;;;;;31.33;5.80;;;17.60;40.80;;;;;;4991453;28;20491;-67
2022/06/07 02:59:14;;;;;;;27.40;5.60;;;17.60;40.40;;;;;;4989315;28;20679;-68
2022/06/07 03:01:41;;;;;;;27.53;4.80;;;17.50;40.10;;;;;;4990606;28;20990;-67
2022/06/07 03:04:09;;;;;;;27.47;5.17;;;17.50;39.80;;;;;;4992120;28;20468;-69
2022/06/07 03:06:36;;;;;;;26.27;4.73;;;17.50;39.50;;;;;;4991983;28;20982;-67
2022/06/07 03:09:03;;;;;;;25.90;4.87;;;17.40;39.40;;;;;;4992072;28;20470;-68
2022/06/07 03:11:30;;;;;;;26.20;4.13;;;17.30;39.70;;;;;;4989482;28;20480;-68
2022/06/07 03:13:56;;;;;;;26.17;5.00;;;17.30;39.90;;;;;;4990774;28;20991;-68
2022/06/07 03:16:23;;;;;;;26.97;5.27;;;17.20;40.30;;;;;;4992217;28;20464;-69
2022/06/07 03:18:50;;;;;;;27.40;4.90;;;17.10;40.40;;;;;;4991021;28;20734;-68
2022/06/07 03:21:18;;;;;;;27.10;5.00;;;17.10;40.50;;;;;;4989775;28;20461;-68
2022/06/07 03:23:45;;;;;;;26.70;5.10;;;17.00;40.60;;;;;;4991609;28;20508;-68
2022/06/07 03:26:14;;;;;;;27.10;4.47;;;17.00;40.80;;;;;;4992069;28;20456;-69
2022/06/07 03:28:41;;;;;;;27.63;5.33;;;17.00;41.10;;;;;;4991067;28;20980;-68
2022/06/07 03:31:12;;;;;;;29.33;5.20;;;16.90;41.10;;;;;;4988898;28;20484;-68
2022/06/07 03:33:39;;;;;;;27.63;5.03;;;16.90;41.00;;;;;;4991578;28;20516;-67
2022/06/07 03:36:08;;;;;;;25.13;4.30;;;16.90;41.20;;;;;;4991251;28;20464;-68
2022/06/07 03:38:36;;;;;;;27.33;4.47;;;16.90;41.20;;;;;;4991265;28;20980;-69
2022/06/07 03:41:03;;;;;;;26.20;4.60;;;16.90;41.60;;;;;;4989777;28;21327;-69
2022/06/07 03:43:30;;;;;;;26.47;4.50;;;16.80;41.40;;;;;;4991108;28;20663;-68
2022/06/07 03:45:56;;;;;;;26.50;4.63;;;16.80;41.70;;;;;;4991287;28;20972;-69
2022/06/07 03:48:23;;;;;;;26.30;4.37;;;16.80;41.70;;;;;;4991037;28;20457;-68
2022/06/07 03:50:50;;;;;;;26.70;4.83;;;16.80;41.70;;;;;;4990835;28;20488;-69
2022/06/07 03:53:17;;;;;;;25.70;4.30;;;16.80;41.80;;;;;;4989936;28;20491;-69
2022/06/07 03:55:47;;;;;;;27.40;5.63;;;16.80;41.70;;;;;;4991335;28;20464;-69
2022/06/07 03:58:14;;;;;;;28.30;5.10;;;16.80;41.50;;;;;;4992067;28;20535;-61
2022/06/07 04:00:42;;;;;;;29.97;6.03;;;16.80;41.70;;;;;;4977062;28;20477;-61
2022/06/07 04:03:09;;;;;;;27.90;5.07;;;16.80;41.50;;;;;;4982911;28;20485;-61
2022/06/07 04:05:39;;;;;;;27.73;5.70;;;16.80;41.30;;;;;;4990225;28;20965;-61
2022/06/07 04:08:13;;;;;;;26.30;5.30;;;16.80;41.20;;;;;;4989490;28;20978;-62
2022/06/07 04:10:47;;;;;;;27.23;4.90;;;16.80;40.90;;;;;;4984080;28;20565;-61
2022/06/07 04:13:15;;;;;;;28.70;5.03;;;16.80;41.30;;;;;;4984460;28;21026;-62
2022/06/07 04:15:42;;;;;;;28.30;5.23;;;16.80;41.10;;;;;;4990592;28;20995;-62
2022/06/07 04:18:09;;;;;;;28.10;5.50;;;16.80;41.00;;;;;;4990233;28;20464;-62
2022/06/07 04:20:36;;;;;;;27.40;4.80;;;16.80;41.10;;;;;;4990209;28;20954;-61
2022/06/07 04:23:04;;;;;;;27.00;4.53;;;16.80;41.20;;;;;;5008735;23;20488;-61
2022/06/07 04:25:31;;;;;;;26.70;4.90;;;16.80;41.00;;;;;;5000160;28;20463;-62
2022/06/07 04:27:59;;;;;;;28.47;5.40;;;16.80;40.90;;;;;;5008950;28;20460;-62
2022/06/07 04:30:26;;;;;;;26.50;4.97;;;16.80;41.00;;;;;;5006958;28;20471;-62
2022/06/07 04:32:52;;;;;;;27.73;5.23;;;16.80;41.20;;;;;;5008501;28;20475;-62
2022/06/07 04:35:19;;;;;;;30.63;4.77;;;16.80;41.30;;;;;;4988667;28;21015;-61
2022/06/07 04:37:46;;;;;;;26.37;5.20;;;16.80;41.30;;;;;;4989667;28;20457;-62
2022/06/07 04:40:13;;;;;;;27.57;5.07;;;16.80;41.50;;;;;;4989722;28;20456;-61
2022/06/07 04:42:41;;;;;;;26.87;4.53;;;16.80;41.90;;;;;;4990107;28;20476;-61
2022/06/07 04:45:14;;;;;;;28.37;5.23;;;16.90;42.20;;;;;;4988300;28;20846;-62
2022/06/07 04:47:41;;;;;;;26.57;4.67;;;16.90;42.30;;;;;;4989469;28;20499;-62
2022/06/07 04:50:10;;;;;;;29.60;5.87;;;16.90;42.30;;;;;;4988514;28;20460;-62
2022/06/07 04:52:37;;;;;;;29.33;5.37;;;16.90;42.20;;;;;;4989489;28;20496;-61
2022/06/07 04:55:05;;;;;;;28.07;5.50;;;17.00;42.20;;;;;;4990009;28;20493;-66
2022/06/07 04:57:32;;;;;;;26.27;4.80;;;17.00;42.30;;;;;;4989406;28;20468;-67
2022/06/07 04:59:58;;;;;;;26.77;4.60;;;17.00;42.20;;;;;;4989487;28;20464;-67
2022/06/07 05:02:27;;;;;;;27.53;5.90;;;17.00;42.40;;;;;;4987184;28;20469;-67
2022/06/07 05:04:54;;;;;;;28.60;5.27;;;17.00;42.60;;;;;;4989403;28;20842;-68
2022/06/07 05:07:20;;;;;;;27.30;4.57;;;17.00;42.60;;;;;;4988546;28;20457;-69
2022/06/07 05:09:48;;;;;;;27.47;5.53;;;17.00;42.50;;;;;;4988914;28;20977;-68
2022/06/07 05:12:15;;;;;;;30.60;4.80;;;17.00;42.30;;;;;;4986933;28;20499;-69
2022/06/07 05:14:43;;;;;;;28.33;5.70;;;17.00;42.40;;;;;;4989592;28;20465;-69
2022/06/07 05:17:10;;;;;;;27.13;5.47;;;17.00;42.30;;;;;;4988761;28;20841;-67
2022/06/07 05:19:39;;;;;;;27.40;4.90;;;17.00;42.40;;;;;;4989318;28;21105;-67
2022/06/07 05:22:06;;;;;;;26.47;4.90;;;17.00;42.40;;;;;;4988118;28;20468;-66
2022/06/07 05:24:34;;;;;;;27.07;5.47;;;17.00;42.50;;;;;;4988887;28;20519;-66
2022/06/07 05:27:03;;;;;;;28.70;4.77;;;17.10;42.30;;;;;;4989113;28;20558;-66
2022/06/07 05:29:35;;;;;;;28.93;4.80;;;17.10;42.20;;;;;;4989175;28;20894;-66
2022/06/07 05:32:02;;;;;;;27.47;4.97;;;17.10;42.20;;;;;;4986870;28;20511;-66
2022/06/07 05:34:29;;;;;;;26.60;4.73;;;17.20;42.70;;;;;;4987325;28;20464;-66
2022/06/07 05:36:57;;;;;;;29.47;4.90;;;17.20;41.80;;;;;;4988248;28;20654;-66
2022/06/07 05:39:26;;;;;;;30.10;5.40;;;17.30;41.40;;;;;;4986066;28;20836;-66
2022/06/07 05:41:53;;;;;;;27.07;4.80;;;17.30;40.70;;;;;;4986803;28;20463;-66
2022/06/07 05:44:21;;;;;;;26.63;5.13;;;17.30;40.30;;;;;;4979390;28;20460;-66
2022/06/07 05:46:48;;;;;;;28.87;5.00;;;17.30;40.30;;;;;;4987620;28;20468;-66
2022/06/07 05:49:16;;;;;;;27.70;5.50;;;17.30;40.10;;;;;;4978896;28;21053;-66
2022/06/07 05:51:43;;;;;;;28.53;4.90;;;17.30;40.10;;;;;;4968457;28;20492;-65
2022/06/07 05:54:13;;;;;;;27.97;5.10;;;17.30;40.00;;;;;;4984075;28;20485;-67
2022/06/07 05:56:40;;;;;;;30.73;5.57;;;17.30;39.80;;;;;;4991117;28;20464;-67
2022/06/07 05:59:07;;;;;;;31.13;6.60;;;17.30;39.50;;;;;;5008027;28;20471;-68
2022/06/07 06:01:35;;;;;;;28.60;6.07;;;17.30;39.40;;;;;;5006359;28;20468;-67
2022/06/07 06:04:03;;;;;;;31.73;5.77;;;17.30;39.40;;;;;;4995175;28;20480;-66
2022/06/07 06:06:31;;;;;;;27.60;5.17;;;17.30;39.70;;;;;;4987484;28;20456;-66
2022/06/07 06:11:44;;;;;;;27.57;3.80;;;17.40;38.30;;;;;;4988378;28;20467;-66
2022/06/07 06:14:11;;;;;;;27.17;3.93;;;17.40;38.20;;;;;;4986381;28;20492;-67
2022/06/07 06:16:38;;;;;;;26.40;3.80;;;17.30;38.30;;;;;;4988682;28;20472;-67
2022/06/07 06:19:05;;;;;;;25.90;3.80;;;17.30;38.30;;;;;;4988061;28;20461;-66
2022/06/07 06:21:34;;;;;;;24.87;3.03;;;17.30;38.30;;;;;;4988146;28;20457;-66
2022/06/07 06:24:02;;;;;;;25.47;3.63;;;17.30;38.20;;;;;;4986944;28;20496;-67
2022/06/07 06:26:29;;;;;;;26.50;3.40;;;17.30;38.40;;;;;;4988163;28;20560;-67
2022/06/07 06:28:57;;;;;;;25.03;3.30;;;17.20;38.30;;;;;;4988060;28;20461;-67
2022/06/07 06:31:24;;;;;;;26.23;3.27;;;17.20;38.20;;;;;;4987421;28;20480;-68
2022/06/07 06:33:54;;;;;;;31.10;3.80;;;17.10;38.40;;;;;;4987700;28;20485;-68
2022/06/07 06:36:23;;;;;;;27.80;3.90;;;17.10;38.60;;;;;;4986311;28;21109;-68
2022/06/07 06:38:49;;;;;;;28.13;3.70;;;17.10;38.60;;;;;;4988348;28;20944;-67
2022/06/07 06:41:18;;;;;;;26.27;4.43;;;17.10;38.60;;;;;;4987895;28;20999;-68
2022/06/07 06:43:45;;;;;;;27.43;3.50;;;17.10;38.50;;;;;;4988261;28;20485;-67
2022/06/07 06:46:16;;;;;;;26.17;3.70;;;17.20;38.50;;;;;;4987801;28;20758;-68
2022/06/07 06:48:44;;;;;;;25.47;3.70;;;17.10;38.70;;;;;;4987401;28;20957;-66
2022/06/07 06:51:13;;;;;;;24.70;2.87;;;17.10;38.50;;;;;;4988335;28;20471;-67
2022/06/07 06:53:42;;;;;;;25.83;3.13;;;17.20;38.40;;;;;;4987852;28;20843;-67
2022/06/07 06:56:11;;;;;;;25.87;3.47;;;17.20;38.30;;;;;;4986743;28;20456;-67
2022/06/07 06:58:37;;;;;;;25.43;3.53;;;17.20;38.30;;;;;;4987424;28;20965;-66
2022/06/07 07:01:07;;;;;;;26.47;3.03;;;17.20;38.10;;;;;;4987328;28;20849;-66
2022/06/07 07:03:37;;;;;;;26.63;3.90;;;17.20;37.70;;;;;;4988535;28;20820;-67
2022/06/07 07:06:06;;;;;;;25.90;3.30;;;17.20;37.50;;;;;;4986399;28;20469;-67
2022/06/07 07:08:33;;;;;;;26.87;3.20;;;17.30;37.50;;;;;;4988206;28;20464;-68
2022/06/07 07:11:07;;;;;;;26.50;3.10;;;17.30;37.20;;;;;;4987630;28;20580;-67
2022/06/07 07:13:33;;;;;;;25.27;2.70;;;17.30;36.70;;;;;;4988331;28;20472;-67
2022/06/07 07:16:00;;;;;;;26.70;2.80;;;17.30;36.40;;;;;;4986634;28;22933;-67
2022/06/07 07:18:27;;;;;;;26.20;3.13;;;17.20;35.90;;;;;;4987910;28;20468;-66
2022/06/07 07:20:55;;;;;;;26.30;3.30;;;17.20;36.20;;;;;;4987364;28;20475;-67
2022/06/07 07:23:24;;;;;;;26.00;3.20;;;17.10;36.20;;;;;;4987597;28;20484;-67
2022/06/07 07:25:50;;;;;;;29.67;4.50;;;17.00;36.50;;;;;;4990823;28;20460;-67
2022/06/07 07:28:18;;;;;;;30.20;6.50;;;16.80;36.10;;;;;;4990269;28;20476;-67
2022/06/07 07:30:44;;;;;;;27.77;4.30;;;16.80;36.70;;;;;;4990440;28;20500;-67
2022/06/07 07:33:11;;;;;;;26.87;4.60;;;16.70;36.70;;;;;;4990864;28;20488;-67
2022/06/07 07:35:38;;;;;;;27.50;4.37;;;16.80;37.00;;;;;;4991174;28;20460;-67
2022/06/07 07:38:06;;;;;;;28.77;6.03;;;16.90;36.70;;;;;;4989648;28;20468;-67
2022/06/07 07:40:33;;;;;;;29.97;4.40;;;16.90;37.80;;;;;;4990892;28;20486;-68
2022/06/07 07:43:00;;;;;;;27.80;3.43;;;17.10;37.60;;;;;;4990806;28;20476;-67
2022/06/07 07:45:27;;;;;;;27.77;2.80;;;17.50;36.20;;;;;;4990871;28;20464;-68
2022/06/07 07:47:53;;;;;;;29.37;2.50;;;18.40;33.00;;;;;;4990167;28;20492;-67
2022/06/07 07:50:21;;;;;;;27.80;2.20;;;19.10;31.80;;;;;;4991253;28;20457;-67
2022/06/07 07:52:48;;;;;;;27.23;2.70;;;19.70;28.60;;;;;;4990719;28;20492;-68
2022/06/07 07:55:16;;;;;;;27.47;2.67;;;20.70;25.50;;;;;;4985977;28;20461;-67
2022/06/07 07:57:43;;;;;;;28.10;2.40;;;21.50;23.00;;;;;;4983784;28;20461;-67
2022/06/07 08:00:11;;;;;;;26.90;2.00;;;22.00;21.30;;;;;;4973712;28;20461;-67
2022/06/07 08:02:37;;;;;;;27.10;2.50;;;22.10;19.50;;;;;;4970684;28;20472;-67
2022/06/07 08:05:05;;;;;;;26.93;2.40;;;21.80;19.20;;;;;;4970288;28;20932;-66
2022/06/07 08:07:33;;;;;;;26.50;2.10;;;21.70;19.90;;;;;;4977042;28;20492;-66
2022/06/07 08:10:02;;;;;;;27.87;2.53;;;21.80;20.70;;;;;;4979198;28;20469;-66
2022/06/07 08:12:31;;;;;;;27.00;1.97;;;22.00;21.70;;;;;;4986972;28;20496;-65
2022/06/07 08:14:58;;;;;;;27.73;2.47;;;22.30;20.00;;;;;;4985730;28;20473;-65
2022/06/07 08:17:25;;;;;;;27.33;2.40;;;22.70;19.50;;;;;;4990377;28;20465;-65
2022/06/07 08:19:52;;;;;;;25.90;2.30;;;23.40;18.90;;;;;;4977494;28;20465;-65
2022/06/07 08:22:19;;;;;;;27.30;2.40;;;24.70;18.80;;;;;;4969970;28;20547;-65
2022/06/07 08:24:46;;;;;;;27.10;2.30;;;26.70;15.00;;;;;;4970227;28;20548;-65
2022/06/07 08:27:13;;;;;;;27.20;2.40;;;28.30;12.30;;;;;;4983500;28;20985;-65
2022/06/07 08:29:42;;;;;;;25.73;2.10;;;28.70;9.90;;;;;;4969521;28;20500;-65
2022/06/07 08:32:09;;;;;;;26.93;2.07;;;29.20;8.60;;;;;;4969404;28;20481;-65
2022/06/07 08:37:38;;;;;;;26.33;2.07;;;30.60;6.00;;;;;;4974832;28;20444;-65
2022/06/07 08:40:10;;;;;;;26.20;1.43;;;31.40;4.60;;;;;;4980210;28;20496;-67
2022/06/07 08:42:42;;;;;;;23.90;1.60;;;32.10;3.60;;;;;;4990383;28;20472;-67
2022/06/07 08:45:16;;;;;;;23.80;1.60;;;33.30;2.80;;;;;;4989837;28;20472;-68
2022/06/07 08:47:47;;;;;;;24.30;1.50;;;35.60;1.10;;;;;;4981018;28;20541;-66
2022/06/07 08:50:18;;;;;;;24.30;1.50;;;37.30;1.00;;;;;;4970664;28;20457;-66
2022/06/07 08:52:47;;;;;;;23.60;1.63;;;37.90;1.00;;;;;;4970268;28;20502;-69
2022/06/07 08:55:19;;;;;;;24.10;1.73;;;37.50;1.00;;;;;;4970220;28;20494;-67
2022/06/07 08:57:54;;;;;;;24.00;1.83;;;36.80;1.00;;;;;;4973322;28;20465;-67
2022/06/07 09:00:25;;;;;;;23.47;1.70;;;36.40;1.00;;;;;;4989305;28;20491;-67
2022/06/07 09:03:22;;;;;;;23.10;2.10;;;36.80;1.00;;;;;;4989240;28;20874;-66
2022/06/07 09:05:53;;;;;;;23.10;2.07;;;38.00;1.00;;;;;;4957258;28;20483;-66
2022/06/07 09:08:19;;;;;;;22.73;1.80;;;38.30;1.00;;;;;;4988564;28;20492;-65
2022/06/07 09:13:35;;;;;;;26.40;1.97;;;40.40;1.00;;;;;;4989386;28;20519;-67
2022/06/07 09:16:05;;;;;;;23.50;1.77;;;41.20;1.00;;;;;;4989103;28;20488;-67
2022/06/07 09:18:33;;;;;;;21.97;1.67;;;43.00;1.00;;;;;;4986983;28;20788;-67
2022/06/07 09:21:08;;;;;;;21.70;1.60;;;43.60;1.00;;;;;;4989100;28;20456;-67
2022/06/07 09:23:47;;;;;;;25.63;2.47;;;43.00;1.00;;;;;;4988768;28;20576;-67
2022/06/07 09:26:24;;;;;;;21.57;1.63;;;41.00;1.00;;;;;;4989044;28;20466;-67
2022/06/07 09:29:05;;;;;;;22.37;2.30;;;39.60;1.00;;;;;;4988504;28;20567;-67
2022/06/07 09:31:33;;;;;;;23.50;1.97;;;38.20;1.00;;;;;;4988664;28;20472;-68
2022/06/07 09:34:05;;;;;;;23.67;1.80;;;36.90;1.00;;;;;;4989254;28;20493;-67
2022/06/07 09:36:36;;;;;;;24.00;1.90;;;35.80;1.00;;;;;;4989449;28;20473;-67
2022/06/07 09:39:13;;;;;;;25.60;2.20;;;35.10;1.00;;;;;;4987933;28;20746;-67
2022/06/07 09:41:44;;;;;;;23.80;2.03;;;34.00;1.00;;;;;;4968888;28;20457;-67
2022/06/07 09:44:21;;;;;;;23.97;2.30;;;32.90;1.00;;;;;;4969571;28;20481;-67
2022/06/07 09:46:51;;;;;;;24.73;2.17;;;31.90;1.00;;;;;;4969843;28;20438;-67
2022/06/07 09:49:34;;;;;;;23.87;1.93;;;31.10;2.00;;;;;;4970025;28;20935;-67
2022/06/07 09:52:14;;;;;;;25.30;2.40;;;30.60;3.00;;;;;;4968887;28;20453;-67
2022/06/07 09:54:44;;;;;;;25.30;2.50;;;30.20;3.60;;;;;;4969868;28;20437;-67
2022/06/07 09:57:36;;;;;;;26.60;2.60;;;29.60;4.20;;;;;;4969084;28;20535;-67
2022/06/07 10:00:17;;;;;;;25.13;2.37;;;28.90;4.70;;;;;;4971386;28;20806;-67
2022/06/07 10:03:14;;;;;;;24.50;2.30;;;28.40;6.50;;;;;;4988016;28;20473;-66
2022/06/07 10:05:46;;;;;;;24.37;2.53;;;28.60;6.30;;;;;;4988566;28;20528;-66
2022/06/07 10:08:26;;;;;;;25.80;2.40;;;28.60;6.10;;;;;;4987863;28;20472;-66
2022/06/07 10:10:58;;;;;;;24.57;2.20;;;28.50;6.00;;;;;;4987850;28;20544;-66
2022/06/07 10:13:39;;;;;;;25.90;2.60;;;28.30;7.30;;;;;;4988040;28;20503;-66
2022/06/07 10:16:25;;;;;;;24.73;1.97;;;27.90;6.80;;;;;;4988306;28;20492;-66
2022/06/07 10:19:03;;;;;;;25.20;2.30;;;27.60;7.30;;;;;;4988544;28;20449;-66
2022/06/07 10:22:08;;;;;;;24.47;2.30;;;27.30;7.80;;;;;;4987674;28;20464;-66
2022/06/07 10:24:45;;;;;;;28.83;2.60;;;27.10;8.40;;;;;;4988310;28;20544;-66
2022/06/07 10:27:19;;;;;;;25.47;2.20;;;27.10;7.80;;;;;;4988010;28;20804;-66
2022/06/07 10:30:16;;;;;;;26.07;2.60;;;27.00;8.30;;;;;;4988230;28;20455;-66
2022/06/07 10:32:52;;;;;;;25.50;2.70;;;26.50;8.40;;;;;;4986742;28;20491;-66
2022/06/07 10:35:24;;;;;;;25.30;2.63;;;26.30;10.10;;;;;;4988296;28;20698;-66
2022/06/07 10:38:07;;;;;;;25.60;2.70;;;26.30;10.00;;;;;;4989069;28;20457;-66
2022/06/07 10:40:38;;;;;;;26.47;2.53;;;26.30;9.80;;;;;;4988316;28;20883;-66
2022/06/07 10:43:23;;;;;;;25.53;3.33;;;26.40;9.70;;;;;;4987284;28;20873;-66
2022/06/07 10:45:54;;;;;;;25.97;2.77;;;26.60;9.80;;;;;;4987818;28;20465;-66
2022/06/07 10:48:25;;;;;;;26.47;2.70;;;26.80;8.00;;;;;;4988708;28;20831;-66
2022/06/07 10:51:00;;;;;;;25.20;2.60;;;26.80;8.30;;;;;;4988601;28;20452;-66
2022/06/07 10:53:30;;;;;;;25.70;2.60;;;26.80;9.00;;;;;;4986827;28;20510;-66
2022/06/07 10:56:03;;;;;;;27.03;2.90;;;26.80;9.80;;;;;;4987745;28;20471;-66
2022/06/07 10:58:39;;;;;;;25.77;2.87;;;26.80;9.00;;;;;;4987948;28;20449;-66
2022/06/07 11:01:15;;;;;;;25.90;3.10;;;26.70;10.10;;;;;;4991376;28;20476;-66
2022/06/07 11:03:57;;;;;;;27.83;3.27;;;26.70;9.80;;;;;;4991106;28;20481;-66
2022/06/07 11:09:27;;;;;;;26.77;3.67;;;26.90;9.10;;;;;;4992615;28;20459;-66
2022/06/07 11:11:59;;;;;;;25.60;3.07;;;27.00;9.00;;;;;;4991526;28;20464;-65
2022/06/07 11:14:38;;;;;;;26.60;3.43;;;26.90;9.20;;;;;;4990419;28;20480;-66
2022/06/07 11:17:15;;;;;;;25.77;3.20;;;26.80;8.80;;;;;;4991939;28;20503;-66
2022/06/07 11:19:42;;;;;;;25.50;3.30;;;26.80;8.50;;;;;;4991417;28;20463;-66
2022/06/07 11:22:17;;;;;;;25.80;3.70;;;26.70;9.40;;;;;;4990994;28;20503;-66
2022/06/07 11:24:55;;;;;;;25.37;2.90;;;26.70;10.40;;;;;;4989464;28;20884;-66
2022/06/07 11:27:23;;;;;;;25.90;2.70;;;26.90;8.90;;;;;;4991692;28;20460;-66
2022/06/07 11:30:28;;;;;;;26.57;3.17;;;27.00;8.90;;;;;;4991243;28;20457;-66
2022/06/07 11:32:58;;;;;;;24.93;2.70;;;27.20;8.30;;;;;;4990700;28;20472;-66
2022/06/07 11:35:47;;;;;;;25.60;2.37;;;27.30;9.10;;;;;;4990308;28;20472;-66
2022/06/07 11:38:29;;;;;;;26.30;2.47;;;27.20;8.90;;;;;;4992492;28;20527;-66
2022/06/07 11:43:56;;;;;;;25.00;2.57;;;27.00;7.90;;;;;;4986722;28;20474;-66
2022/06/07 11:46:26;;;;;;;27.67;2.60;;;27.00;8.30;;;;;;4982843;28;20540;-66
2022/06/07 11:48:53;;;;;;;24.63;2.40;;;27.10;9.10;;;;;;4992299;28;21511;-66
2022/06/07 11:51:23;;;;;;;26.37;2.70;;;27.20;8.80;;;;;;4987011;28;20496;-66
2022/06/07 11:54:01;;;;;;;26.37;2.70;;;27.10;7.80;;;;;;4991840;28;20972;-66
2022/06/07 11:56:37;;;;;;;25.40;2.57;;;27.00;7.50;;;;;;4984398;28;20510;-66
2022/06/07 11:59:42;;;;;;;24.67;2.30;;;26.90;7.80;;;;;;4984588;28;20472;-67
2022/06/07 12:02:24;;;;;;;27.40;2.27;;;27.00;8.60;;;;;;4982712;28;20504;-67
2022/06/07 12:05:16;;;;;;;26.20;2.30;;;27.10;7.40;;;;;;4984442;28;20472;-68
2022/06/07 12:07:50;;;;;;;25.07;2.60;;;27.10;7.90;;;;;;4988720;28;20465;-67
2022/06/07 12:10:31;;;;;;;25.37;2.07;;;27.20;8.50;;;;;;4986143;28;20474;-67
2022/06/07 12:13:01;;;;;;;24.80;2.53;;;26.90;6.50;;;;;;4983648;28;21160;-66
2022/06/07 12:15:38;;;;;;;25.00;2.60;;;26.60;7.70;;;;;;4984075;28;20499;-68
2022/06/07 12:18:07;;;;;;;25.00;2.20;;;26.40;8.50;;;;;;4970662;28;21128;-69
2022/06/07 12:20:37;;;;;;;24.63;2.20;;;26.30;8.70;;;;;;4970858;28;20525;-67
2022/06/07 12:23:16;;;;;;;25.50;2.23;;;26.30;9.40;;;;;;4969489;28;20485;-67
2022/06/07 12:25:53;;;;;;;25.27;2.30;;;26.30;9.60;;;;;;4973644;28;20465;-67
2022/06/07 12:28:25;;;;;;;25.00;2.30;;;26.40;8.30;;;;;;4989828;28;20457;-67
2022/06/07 12:30:54;;;;;;;25.00;2.00;;;26.30;8.70;;;;;;4990169;28;20851;-67
2022/06/07 12:33:28;;;;;;;25.17;2.10;;;26.40;8.80;;;;;;4988845;28;20536;-67
2022/06/07 12:35:59;;;;;;;24.73;2.07;;;26.50;8.10;;;;;;4988838;28;21018;-68
2022/06/07 12:38:26;;;;;;;24.57;1.60;;;26.70;8.60;;;;;;4989333;28;20515;-67
2022/06/07 12:40:55;;;;;;;24.60;1.87;;;27.00;8.90;;;;;;4990728;28;20484;-67
2022/06/07 12:43:26;;;;;;;25.27;2.27;;;27.20;8.30;;;;;;4989590;28;20479;-67
2022/06/07 12:46:01;;;;;;;25.13;2.30;;;27.30;7.90;;;;;;4989082;28;20848;-67
2022/06/07 12:48:35;;;;;;;24.73;1.90;;;27.40;7.90;;;;;;4970230;28;20926;-67
2022/06/07 12:51:02;;;;;;;24.80;1.70;;;27.40;7.80;;;;;;4970335;28;20535;-67
2022/06/07 12:53:30;;;;;;;24.60;1.90;;;27.20;6.60;;;;;;4970491;28;20524;-69
2022/06/07 12:56:03;;;;;;;24.73;2.20;;;27.10;6.00;;;;;;4968958;28;20819;-67
2022/06/07 12:58:34;;;;;;;24.50;1.77;;;26.80;7.20;;;;;;4986437;28;20461;-69
2022/06/07 13:01:03;;;;;;;27.13;1.90;;;26.70;7.50;;;;;;4988746;28;20694;-67
2022/06/07 13:03:31;;;;;;;24.70;1.90;;;26.60;7.90;;;;;;4989465;28;20610;-68
2022/06/07 13:06:01;;;;;;;24.97;1.97;;;26.60;8.10;;;;;;4989227;28;20465;-68
2022/06/07 13:08:34;;;;;;;24.70;1.97;;;26.60;8.10;;;;;;4987743;28;20819;-67
2022/06/07 13:11:01;;;;;;;25.07;2.07;;;26.70;9.10;;;;;;4989587;28;20608;-67
2022/06/07 13:13:33;;;;;;;24.70;2.03;;;26.70;9.20;;;;;;4988799;28;20488;-67
2022/06/07 13:16:15;;;;;;;25.03;1.90;;;26.60;8.00;;;;;;4989926;28;20449;-67